Time;durP1;ratioP1;P1;durP2;ratioP2;P2;SDS_P1;SDS_P2;PMS_P1;PMS_P2;Temp;Humidity;BMP_temperature;BMP_pressure;BME280_temperature;BME280_humidity;BME280_pressure;Samples;Min_cycle;Max_cycle;Signal;HPM_P1;HPM_P2
2024/03/19 06:09:43;;;;;;;483.85;27.15;;;;;;;2.07;100.00;96778.00;2086526;28;20572;-59
2024/03/19 06:10:44;;;;;;;241.90;14.80;;;;;;;2.22;100.00;96766.72;2079921;28;20217;-60
2024/03/19 06:17:41;;;;;;;13.77;6.47;;;;;;;2.81;100.00;96773.84;2083526;28;21058;-57
2024/03/19 06:18:41;;;;;;;61.20;9.47;;;;;;;2.82;100.00;96773.81;2084981;28;20776;-60
2024/03/19 06:24:53;;;;;;;14.82;5.10;;;;;;;3.51;100.00;96777.22;2110358;27;20572;-57
2024/03/19 06:29:43;;;;;;;6.90;3.70;;;;;;;4.21;100.00;96776.97;2076440;28;20578;-59
2024/03/19 06:34:10;;;;;;;4.72;3.72;;;;;;;4.76;99.44;96769.06;2082455;28;20553;-57
2024/03/19 06:38:21;;;;;;;5.35;3.22;;;;;;;5.11;98.20;96754.56;2085291;28;20557;-59
2024/03/19 06:42:15;;;;;;;2.97;2.60;;;;;;;5.34;98.72;96767.00;2084856;28;20556;-57
2024/03/19 06:45:56;;;;;;;8.07;2.55;;;;;;;5.70;95.68;96771.38;2084696;28;20590;-59
2024/03/19 06:49:13;;;;;;;4.40;3.10;;;;;;;6.14;93.77;96772.09;2083686;28;20571;-58
2024/03/19 06:50:14;;;;;;;4.28;3.25;;;;;;;6.34;92.99;96771.59;2064493;28;20244;-58
2024/03/19 06:53:24;;;;;;;4.30;2.55;;;;;;;6.77;90.69;96779.97;2083875;28;20558;-58
2024/03/19 06:54:25;;;;;;;6.83;2.60;;;;;;;6.77;89.88;96777.38;2066758;28;20304;-58
2024/03/19 06:55:25;;;;;;;3.63;2.57;;;;;;;6.94;90.37;96784.69;2061230;28;20471;-58
2024/03/19 06:56:26;;;;;;;3.97;2.67;;;;;;;7.18;88.39;96777.13;2061257;28;20642;-58
2024/03/19 06:59:27;;;;;;;4.38;2.67;;;;;;;7.45;86.81;96782.38;2080729;28;20576;-58
2024/03/19 07:00:27;;;;;;;3.65;2.50;;;;;;;7.39;86.28;96779.97;2080345;28;20242;-59
2024/03/19 07:01:28;;;;;;;4.90;3.10;;;;;;;7.68;86.22;96787.75;2074705;28;20214;-59
2024/03/19 07:02:28;;;;;;;2.93;2.30;;;;;;;7.50;87.04;96768.38;2075667;28;20287;-58
2024/03/19 07:03:29;;;;;;;3.27;2.57;;;;;;;7.57;85.80;96783.75;2076424;28;20214;-58
2024/03/19 07:04:30;;;;;;;3.50;2.47;;;;;;;7.85;85.88;96781.16;2071268;28;20227;-58
2024/03/19 07:05:32;;;;;;;4.90;2.80;;;;;;;8.67;83.45;96765.47;2073750;28;20205;-60
2024/03/19 07:06:33;;;;;;;5.55;3.55;;;;;;;8.47;82.70;96774.00;2072937;28;20221;-60
2024/03/19 07:07:35;;;;;;;4.00;3.00;;;;;;;8.42;82.92;96783.69;2072794;28;20285;-60
2024/03/19 07:08:35;;;;;;;5.20;3.72;;;;;;;8.49;81.52;96783.44;2070125;28;20644;-61
2024/03/19 07:09:36;;;;;;;5.97;2.90;;;;;;;8.55;81.83;96784.97;2068364;28;20222;-61
2024/03/19 07:10:37;;;;;;;5.30;2.97;;;;;;;8.68;81.44;96784.56;2071664;28;20689;-60
2024/03/19 07:11:38;;;;;;;4.28;3.05;;;;;;;8.52;82.48;96790.28;2071941;28;20800;-60
2024/03/19 07:12:42;;;;;;;4.10;3.20;;;;;;;8.60;83.13;96785.66;2071385;28;20733;-60
2024/03/19 07:13:43;;;;;;;4.38;2.75;;;;;;;8.37;83.46;96782.94;2075931;28;20300;-61
2024/03/19 07:14:44;;;;;;;4.80;2.77;;;;;;;8.43;84.64;96781.00;2076086;28;20335;-61
2024/03/19 07:15:45;;;;;;;3.63;2.50;;;;;;;8.93;83.75;96787.16;2076837;28;20220;-61
2024/03/19 07:16:46;;;;;;;2.80;2.20;;;;;;;9.42;81.43;96784.47;2077097;28;20209;-61
2024/03/19 07:17:50;;;;;;;2.90;2.20;;;;;;;9.51;80.42;96780.66;2073892;28;20210;-61
2024/03/19 07:18:50;;;;;;;3.15;2.47;;;;;;;9.69;79.43;96784.31;2075045;28;20268;-65
2024/03/19 07:19:51;;;;;;;3.40;2.63;;;;;;;9.68;79.51;96790.47;2070785;28;20218;-64
2024/03/19 07:20:55;;;;;;;3.73;2.30;;;;;;;9.45;80.79;96789.59;2064652;28;20738;-64
2024/03/19 07:21:55;;;;;;;3.22;2.10;;;;;;;9.56;81.53;96786.56;2068523;28;20198;-65
2024/03/19 07:22:56;;;;;;;3.40;2.40;;;;;;;9.37;81.54;96787.28;2073738;28;20209;-65
2024/03/19 07:23:57;;;;;;;4.50;2.30;;;;;;;9.22;81.38;96780.00;2076679;28;20216;-65
2024/03/19 07:24:57;;;;;;;3.00;1.97;;;;;;;9.39;81.63;96787.22;2072835;28;20210;-65
2024/03/19 07:25:58;;;;;;;4.37;2.40;;;;;;;9.46;82.21;96789.53;2074046;28;20660;-64
2024/03/19 07:26:59;;;;;;;3.67;2.20;;;;;;;9.51;82.26;96785.88;2066183;28;20262;-65
2024/03/19 07:28:00;;;;;;;3.80;2.57;;;;;;;9.80;80.51;96789.97;2065790;28;20210;-65
2024/03/19 07:29:00;;;;;;;2.77;2.00;;;;;;;9.99;79.99;96790.09;2072158;28;20249;-64
2024/03/19 07:30:01;;;;;;;4.33;1.97;;;;;;;10.04;80.45;96788.13;2071740;28;20458;-65
2024/03/19 07:31:02;;;;;;;2.97;2.15;;;;;;;9.78;81.27;96787.41;2074124;28;20214;-65
2024/03/19 07:32:03;;;;;;;7.00;2.27;;;;;;;9.41;83.99;96775.81;2074748;28;20228;-65
2024/03/19 07:33:04;;;;;;;3.53;2.15;;;;;;;9.54;83.26;96781.41;2072027;28;20454;-65
2024/03/19 07:34:06;;;;;;;6.67;3.00;;;;;;;9.85;82.10;96790.63;2071890;28;20263;-64
2024/03/19 07:35:08;;;;;;;3.47;2.55;;;;;;;9.80;82.10;96790.84;2072828;28;21186;-64
2024/03/19 07:36:10;;;;;;;4.07;2.45;;;;;;;9.84;81.75;96788.97;2072512;28;20213;-65
2024/03/19 07:37:10;;;;;;;5.80;3.20;;;;;;;9.93;81.24;96795.56;2074044;28;20927;-64
2024/03/19 07:38:11;;;;;;;4.47;3.23;;;;;;;9.95;81.04;96793.72;2069344;28;20788;-64
2024/03/19 07:39:12;;;;;;;5.27;3.33;;;;;;;9.65;82.64;96786.22;2068093;28;20309;-64
2024/03/19 07:40:13;;;;;;;4.07;2.90;;;;;;;10.03;81.87;96798.66;2077110;28;20854;-64
2024/03/19 07:41:14;;;;;;;3.97;3.00;;;;;;;10.19;81.49;96794.50;2082036;28;20433;-64
2024/03/19 07:42:14;;;;;;;4.97;2.60;;;;;;;10.08;81.60;96799.31;2074082;28;20220;-62
2024/03/19 07:43:18;;;;;;;3.90;3.10;;;;;;;9.96;82.26;96798.88;2077395;28;20220;-62
2024/03/19 07:44:18;;;;;;;5.95;3.60;;;;;;;10.12;81.59;96793.91;2079597;28;20728;-62
2024/03/19 07:45:19;;;;;;;8.67;4.27;;;;;;;10.01;82.48;96803.09;2075983;28;20654;-62
2024/03/19 07:46:20;;;;;;;7.97;3.27;;;;;;;9.98;81.85;96798.84;2065020;28;20581;-62
2024/03/19 07:47:20;;;;;;;5.70;3.07;;;;;;;9.58;82.77;96805.59;2064016;28;20214;-63
2024/03/19 07:48:21;;;;;;;4.70;2.93;;;;;;;9.51;83.64;96796.31;2073401;28;20209;-62
2024/03/19 07:49:21;;;;;;;4.97;3.40;;;;;;;9.60;83.31;96790.75;2065550;28;20214;-62
2024/03/19 07:50:28;;;;;;;6.40;2.60;;;;;;;10.00;82.51;96799.63;2068606;28;20285;-62
2024/03/19 07:51:29;;;;;;;12.32;3.40;;;;;;;9.83;82.52;96789.00;2078041;28;20206;-65
2024/03/19 07:52:29;;;;;;;4.77;2.50;;;;;;;10.23;82.31;96803.06;2074291;28;20220;-62
2024/03/19 07:53:30;;;;;;;6.10;3.10;;;;;;;10.24;82.52;96792.56;2074830;28;20209;-62
2024/03/19 07:54:31;;;;;;;4.93;2.50;;;;;;;10.32;81.56;96799.22;2072996;28;20288;-62
2024/03/19 07:55:31;;;;;;;4.03;2.77;;;;;;;10.36;81.25;96800.81;2072292;28;20212;-62
2024/03/19 07:56:33;;;;;;;4.10;2.70;;;;;;;10.61;80.37;96808.47;2065691;28;20983;-62
2024/03/19 07:57:33;;;;;;;5.45;2.10;;;;;;;10.77;80.83;96811.31;2073559;28;20209;-63
2024/03/19 07:58:34;;;;;;;2.70;2.20;;;;;;;10.92;79.62;96809.81;2072474;28;20205;-62
2024/03/19 07:59:34;;;;;;;3.73;2.20;;;;;;;11.10;78.70;96802.91;2075938;28;20279;-62
2024/03/19 08:00:37;;;;;;;4.50;2.30;;;;;;;10.98;79.73;96813.91;2077173;28;20206;-62
2024/03/19 08:01:37;;;;;;;4.47;2.83;;;;;;;10.85;80.54;96806.59;2073980;28;20206;-64
2024/03/19 08:02:38;;;;;;;5.30;2.90;;;;;;;11.27;79.92;96823.06;2074068;28;20197;-62
2024/03/19 08:03:39;;;;;;;3.40;2.10;;;;;;;11.60;78.87;96822.44;2074729;28;20205;-62
2024/03/19 08:04:40;;;;;;;4.80;2.17;;;;;;;11.10;79.07;96814.22;2076354;28;20221;-62
2024/03/19 08:05:40;;;;;;;4.60;2.47;;;;;;;10.97;80.75;96817.41;2072279;28;20300;-62
2024/03/19 08:06:43;;;;;;;4.20;2.67;;;;;;;10.95;80.42;96812.28;2071322;28;21259;-63
2024/03/19 08:07:44;;;;;;;4.90;2.17;;;;;;;11.11;80.54;96823.75;2072418;28;20201;-63
2024/03/19 08:08:44;;;;;;;5.47;2.50;;;;;;;11.14;80.73;96819.31;2071611;28;20287;-62
2024/03/19 08:09:47;;;;;;;4.70;2.50;;;;;;;10.98;81.01;96829.56;2071547;28;20844;-63
2024/03/19 08:10:48;;;;;;;4.53;1.85;;;;;;;10.78;81.40;96826.91;2067915;28;20218;-62
2024/03/19 08:11:49;;;;;;;3.92;1.88;;;;;;;10.62;81.94;96824.09;2071652;28;20268;-62
2024/03/19 08:12:49;;;;;;;2.40;1.50;;;;;;;10.56;82.72;96840.03;2071666;28;20264;-62
2024/03/19 08:13:50;;;;;;;2.60;1.40;;;;;;;10.30;83.50;96826.25;2063763;28;20207;-62
2024/03/19 08:14:51;;;;;;;3.60;2.00;;;;;;;10.78;82.52;96836.53;2061642;28;20218;-62
2024/03/19 08:15:52;;;;;;;5.38;1.80;;;;;;;10.57;82.34;96814.75;2067853;28;20245;-63
2024/03/19 08:16:53;;;;;;;2.80;2.00;;;;;;;10.97;82.31;96833.09;2067763;28;20202;-62
2024/03/19 08:17:54;;;;;;;2.30;1.70;;;;;;;11.19;81.53;96839.09;2075698;28;20214;-63
2024/03/19 08:18:59;;;;;;;3.40;1.80;;;;;;;11.25;82.00;96828.38;2074903;28;20286;-63
2024/03/19 08:20:00;;;;;;;2.15;1.33;;;;;;;11.15;82.49;96844.50;2061641;28;20981;-63
2024/03/19 08:21:00;;;;;;;4.77;1.73;;;;;;;11.33;82.82;96837.66;2070109;28;20742;-63
2024/03/19 08:22:01;;;;;;;4.67;1.97;;;;;;;11.31;82.19;96850.75;2065794;28;20808;-63
2024/03/19 08:23:03;;;;;;;3.23;1.37;;;;;;;11.04;82.95;96847.59;2066825;28;20331;-63
2024/03/19 08:24:03;;;;;;;4.90;1.70;;;;;;;11.01;84.05;96853.81;2065667;28;20207;-64
2024/03/19 08:25:06;;;;;;;3.13;1.70;;;;;;;11.33;83.26;96850.72;2067875;28;20221;-63
2024/03/19 08:26:06;;;;;;;2.75;1.80;;;;;;;11.47;84.10;96850.09;2066873;28;20814;-63
2024/03/19 08:27:07;;;;;;;2.53;1.80;;;;;;;11.36;83.05;96842.72;2069250;28;20299;-63
2024/03/19 08:28:07;;;;;;;4.20;1.60;;;;;;;11.44;82.67;96851.91;2070794;28;20292;-63
2024/03/19 08:29:08;;;;;;;3.30;1.70;;;;;;;11.50;82.68;96850.78;2065362;28;20569;-64
2024/03/19 08:30:09;;;;;;;3.20;1.77;;;;;;;11.44;82.16;96849.31;2066847;28;20486;-63
2024/03/19 08:31:10;;;;;;;3.97;1.95;;;;;;;11.59;82.28;96846.91;2069250;28;20759;-59
2024/03/19 08:32:11;;;;;;;5.57;2.30;;;;;;;12.02;80.75;96849.34;2063527;28;20931;-59
2024/03/19 08:33:11;;;;;;;4.93;1.90;;;;;;;11.49;83.46;96841.25;2071400;28;20507;-59
2024/03/19 08:34:13;;;;;;;2.47;1.40;;;;;;;11.42;83.12;96843.28;2070861;28;26073;-59
2024/03/19 08:35:14;;;;;;;2.70;1.65;;;;;;;11.24;84.11;96859.81;2075624;28;20213;-59
2024/03/19 08:36:15;;;;;;;2.47;1.83;;;;;;;11.25;84.59;96854.50;2069253;28;20209;-59
2024/03/19 08:37:15;;;;;;;5.20;2.27;;;;;;;11.42;84.69;96851.13;2062550;28;20213;-59
2024/03/19 08:38:16;;;;;;;9.83;1.93;;;;;;;11.32;85.35;96851.63;2069304;28;20569;-59
2024/03/19 08:39:18;;;;;;;4.28;2.17;;;;;;;11.30;85.42;96848.22;2067287;28;20222;-59
2024/03/19 08:40:19;;;;;;;4.82;1.70;;;;;;;11.40;83.81;96854.72;2067382;28;20201;-59
2024/03/19 08:41:19;;;;;;;4.53;1.70;;;;;;;11.38;84.30;96849.56;2065614;28;20221;-59
2024/03/19 08:42:20;;;;;;;3.20;1.70;;;;;;;11.47;84.12;96847.50;2069747;28;20211;-59
2024/03/19 08:43:20;;;;;;;4.13;2.10;;;;;;;11.54;84.53;96851.50;2060858;28;20641;-60
2024/03/19 08:44:21;;;;;;;2.40;1.63;;;;;;;11.57;84.13;96852.22;2061249;28;20233;-59
2024/03/19 08:45:23;;;;;;;5.07;1.97;;;;;;;11.95;83.26;96854.00;2062057;28;20663;-59
2024/03/19 08:46:24;;;;;;;2.90;1.70;;;;;;;11.95;82.24;96847.88;2059421;28;20636;-59
2024/03/19 08:47:25;;;;;;;4.23;1.90;;;;;;;11.93;83.09;96853.19;2066823;28;20207;-59
2024/03/19 08:48:25;;;;;;;3.17;1.70;;;;;;;12.03;82.26;96845.81;2065268;28;20194;-59
2024/03/19 08:49:26;;;;;;;3.50;2.00;;;;;;;12.05;83.30;96852.66;2065090;28;20308;-59
2024/03/19 08:50:26;;;;;;;2.90;2.00;;;;;;;11.38;85.95;96849.56;2075167;28;20255;-59
2024/03/19 08:51:30;;;;;;;2.70;1.93;;;;;;;11.60;84.90;96854.72;2065028;28;20214;-59
2024/03/19 08:52:31;;;;;;;3.70;1.88;;;;;;;11.60;84.19;96846.00;2066624;28;20217;-59
2024/03/19 08:53:32;;;;;;;2.85;1.92;;;;;;;11.82;83.80;96852.84;2062758;28;20222;-59
2024/03/19 08:54:32;;;;;;;4.00;1.80;;;;;;;12.08;82.76;96855.13;2062996;28;20618;-63
2024/03/19 08:55:37;;;;;;;5.20;2.27;;;;;;;12.37;81.69;96849.44;2067854;28;20213;-63
2024/03/19 08:56:38;;;;;;;2.35;1.40;;;;;;;12.30;81.22;96855.88;2071442;28;20783;-63
2024/03/19 08:57:39;;;;;;;6.33;2.20;;;;;;;12.52;81.40;96850.44;2071418;28;20682;-63
2024/03/19 08:58:42;;;;;;;3.17;1.55;;;;;;;13.05;79.49;96852.16;2066784;28;20443;-63
2024/03/19 08:59:44;;;;;;;3.60;1.80;;;;;;;13.67;78.03;96848.09;2072570;28;21027;-63
2024/03/19 09:00:45;;;;;;;10.32;4.63;;;;;;;14.32;76.13;96855.03;2068326;28;20226;-63
2024/03/19 09:01:46;;;;;;;3.63;2.10;;;;;;;14.67;73.28;96846.97;2068396;28;20213;-63
2024/03/19 09:02:46;;;;;;;4.63;2.30;;;;;;;14.33;74.69;96852.31;2069527;28;20220;-63
2024/03/19 09:03:47;;;;;;;3.23;1.40;;;;;;;14.43;74.44;96857.91;2067940;28;20448;-63
2024/03/19 09:04:48;;;;;;;3.67;1.90;;;;;;;14.67;73.15;96847.78;2051769;28;20253;-63
2024/03/19 09:05:55;;;;;;;3.07;1.70;;;;;;;14.45;73.16;96852.56;2063281;28;21187;-63
2024/03/19 09:06:56;;;;;;;3.08;1.63;;;;;;;14.84;70.84;96853.84;2070294;28;20221;-63
2024/03/19 09:07:56;;;;;;;3.80;1.40;;;;;;;13.79;73.24;96852.69;2070517;28;20786;-63
2024/03/19 09:08:58;;;;;;;1.90;1.10;;;;;;;14.30;73.30;96851.66;2068238;28;20890;-63
2024/03/19 09:09:58;;;;;;;2.35;1.55;;;;;;;14.78;72.99;96849.81;2063593;28;20210;-63
2024/03/19 09:10:59;;;;;;;2.43;1.80;;;;;;;15.56;70.89;96846.06;2063176;28;20768;-63
2024/03/19 09:11:59;;;;;;;3.53;1.37;;;;;;;15.74;69.83;96854.59;2065466;28;20796;-63
2024/03/19 09:13:00;;;;;;;2.97;1.50;;;;;;;15.42;70.60;96852.16;2067667;28;20206;-63
2024/03/19 09:14:00;;;;;;;2.60;1.50;;;;;;;15.66;69.74;96849.81;2069736;28;20630;-63
2024/03/19 09:15:01;;;;;;;3.57;1.70;;;;;;;15.64;69.65;96851.69;2068183;28;20275;-64
2024/03/19 09:16:02;;;;;;;1.90;1.13;;;;;;;15.77;70.04;96854.41;2068763;28;20663;-63
2024/03/19 09:17:03;;;;;;;3.93;1.10;;;;;;;15.31;69.03;96854.59;2069340;28;20205;-63
2024/03/19 09:18:03;;;;;;;6.73;1.30;;;;;;;15.36;70.41;96855.16;2068091;28;20541;-63
2024/03/19 09:19:04;;;;;;;4.37;1.30;;;;;;;14.91;69.30;96857.00;2064079;28;20281;-64
2024/03/19 09:20:05;;;;;;;1.70;1.00;;;;;;;15.01;69.66;96845.00;2066637;28;20912;-63
2024/03/19 09:21:07;;;;;;;2.50;1.30;;;;;;;14.93;69.51;96855.09;2071182;28;20224;-64
2024/03/19 09:22:08;;;;;;;2.92;1.20;;;;;;;15.12;69.95;96860.97;2069713;28;20214;-64
2024/03/19 09:23:09;;;;;;;7.03;1.42;;;;;;;14.82;70.71;96856.56;2070731;28;20221;-63
2024/03/19 09:24:10;;;;;;;2.00;1.20;;;;;;;14.74;70.61;96853.56;2069837;28;20213;-63
2024/03/19 09:25:11;;;;;;;3.47;1.30;;;;;;;14.91;70.93;96864.88;2065196;28;20252;-63
2024/03/19 09:26:13;;;;;;;3.95;1.40;;;;;;;15.06;70.02;96856.06;2065328;28;20741;-63
2024/03/19 09:27:14;;;;;;;3.63;1.50;;;;;;;14.59;70.13;96860.50;2067111;28;20880;-64
2024/03/19 09:28:14;;;;;;;5.50;1.50;;;;;;;14.72;71.29;96860.69;2070783;28;20737;-64
2024/03/19 09:29:16;;;;;;;5.03;1.43;;;;;;;14.30;71.45;96856.94;2078674;28;20201;-63
2024/03/19 09:30:16;;;;;;;5.50;1.20;;;;;;;14.24;72.41;96865.97;2068710;28;20617;-64
2024/03/19 09:31:17;;;;;;;4.20;1.50;;;;;;;14.66;70.93;96864.50;2066519;28;20477;-64
2024/03/19 09:32:17;;;;;;;4.63;1.50;;;;;;;14.56;71.68;96865.09;2065690;28;20622;-64
2024/03/19 09:33:18;;;;;;;2.70;1.20;;;;;;;14.35;71.44;96865.38;2073280;28;20256;-63
2024/03/19 09:34:18;;;;;;;4.27;1.60;;;;;;;14.48;71.99;96866.38;2077682;28;20605;-64
2024/03/19 09:35:19;;;;;;;3.07;1.50;;;;;;;14.81;72.50;96864.56;2071214;28;20213;-64
2024/03/19 09:36:20;;;;;;;2.95;1.40;;;;;;;14.90;69.37;96858.75;2066161;28;20672;-64
2024/03/19 09:37:22;;;;;;;2.60;1.17;;;;;;;14.87;69.73;96861.56;2065509;28;20345;-64
2024/03/19 09:38:23;;;;;;;4.43;1.50;;;;;;;15.75;68.11;96858.09;2066334;28;20456;-64
2024/03/19 09:39:23;;;;;;;4.23;1.40;;;;;;;16.38;66.89;96853.25;2065646;28;20221;-64
2024/03/19 09:40:25;;;;;;;2.30;1.40;;;;;;;16.10;66.55;96855.91;2067021;28;20302;-63
2024/03/19 09:41:26;;;;;;;3.13;1.27;;;;;;;16.92;64.37;96853.22;2074925;28;20209;-64
2024/03/19 09:42:27;;;;;;;7.30;1.70;;;;;;;16.99;65.15;96853.69;2067140;28;20206;-63
2024/03/19 09:43:32;;;;;;;3.20;1.40;;;;;;;16.38;65.60;96853.25;2073893;28;20343;-63
2024/03/19 09:44:32;;;;;;;2.97;1.40;;;;;;;15.89;67.71;96850.19;2066078;28;20229;-64
2024/03/19 09:45:33;;;;;;;2.40;1.20;;;;;;;15.76;68.25;96851.88;2066948;28;20280;-64
2024/03/19 09:46:34;;;;;;;2.47;1.40;;;;;;;15.87;68.84;96853.84;2074003;28;20205;-63
2024/03/19 09:47:36;;;;;;;5.90;1.33;;;;;;;15.34;68.77;96859.69;2066643;28;20217;-63
2024/03/19 09:48:38;;;;;;;5.40;1.50;;;;;;;15.13;69.70;96854.75;2066235;28;20202;-63
2024/03/19 09:49:39;;;;;;;2.10;1.67;;;;;;;15.07;69.99;96847.25;2065929;28;20221;-63
2024/03/19 09:50:41;;;;;;;8.93;1.73;;;;;;;14.26;71.15;96852.75;2069427;28;20205;-63
2024/03/19 09:51:42;;;;;;;5.97;1.42;;;;;;;14.71;71.43;96856.34;2071391;28;20201;-63
2024/03/19 09:52:43;;;;;;;4.50;1.23;;;;;;;15.24;70.57;96856.75;2071153;28;20198;-63
2024/03/19 09:53:45;;;;;;;2.97;1.33;;;;;;;15.21;69.37;96856.97;2065883;28;20595;-64
2024/03/19 09:54:46;;;;;;;2.97;1.63;;;;;;;15.23;69.02;96859.47;2072113;28;20229;-64
2024/03/19 09:55:47;;;;;;;5.87;2.43;;;;;;;14.94;70.89;96860.25;2069349;28;20201;-64
2024/03/19 09:56:48;;;;;;;3.35;1.40;;;;;;;15.36;70.77;96857.78;2070214;28;20282;-63
2024/03/19 09:57:49;;;;;;;2.58;1.40;;;;;;;15.41;69.68;96855.72;2070868;28;20688;-64
2024/03/19 09:58:50;;;;;;;3.88;1.40;;;;;;;15.82;68.56;96862.91;2070154;28;20242;-63
2024/03/19 09:59:51;;;;;;;6.22;1.70;;;;;;;15.46;68.74;96855.44;2064357;28;20281;-64
2024/03/19 10:00:52;;;;;;;7.60;2.13;;;;;;;15.30;69.05;96858.16;2071444;28;20213;-64
2024/03/19 10:01:54;;;;;;;3.88;1.55;;;;;;;15.09;69.73;96858.50;2066770;28;20897;-64
2024/03/19 10:02:55;;;;;;;3.10;1.70;;;;;;;14.96;70.43;96866.28;2066589;28;20201;-63
2024/03/19 10:03:57;;;;;;;7.90;1.33;;;;;;;14.85;71.72;96863.44;2066608;28;20206;-64
2024/03/19 10:04:58;;;;;;;4.20;1.70;;;;;;;14.77;72.88;96863.06;2069319;28;20233;-64
2024/03/19 10:05:58;;;;;;;5.83;1.53;;;;;;;14.85;72.51;96864.31;2070206;28;20655;-64
2024/03/19 10:07:00;;;;;;;5.77;1.70;;;;;;;14.76;72.45;96859.56;2075080;28;20209;-64
2024/03/19 10:08:00;;;;;;;7.22;1.30;;;;;;;14.92;71.58;96862.16;2068109;28;20202;-64
2024/03/19 10:09:01;;;;;;;4.40;1.80;;;;;;;15.24;70.71;96863.81;2075714;28;20710;-64
2024/03/19 10:10:01;;;;;;;4.00;1.33;;;;;;;15.35;71.35;96864.00;2068693;28;20216;-64
2024/03/19 10:11:02;;;;;;;9.47;1.53;;;;;;;15.07;71.49;96859.53;2066441;28;20268;-64
2024/03/19 10:12:03;;;;;;;2.60;1.33;;;;;;;15.00;72.20;96870.41;2065788;28;20218;-64
2024/03/19 10:13:03;;;;;;;4.10;1.40;;;;;;;14.80;71.85;96863.69;2074416;28;20245;-64
2024/03/19 10:14:04;;;;;;;3.80;1.40;;;;;;;15.18;70.37;96870.28;2065465;28;20432;-63
2024/03/19 10:15:05;;;;;;;3.50;1.87;;;;;;;14.34;71.99;96863.69;2066246;28;20202;-63
2024/03/19 10:16:06;;;;;;;4.95;1.55;;;;;;;14.09;74.84;96865.03;2064235;28;20616;-63
2024/03/19 10:17:13;;;;;;;5.57;1.73;;;;;;;14.39;73.79;96863.44;2073365;28;20213;-63
2024/03/19 10:18:14;;;;;;;5.97;2.08;;;;;;;14.47;72.58;96861.22;2073118;28;20450;-63
2024/03/19 10:19:16;;;;;;;4.00;1.50;;;;;;;13.81;75.33;96863.94;2064676;28;20292;-63
2024/03/19 10:20:17;;;;;;;3.38;1.75;;;;;;;14.37;73.82;96866.13;2074070;28;20477;-63
2024/03/19 10:21:18;;;;;;;5.68;1.90;;;;;;;14.31;72.16;96856.84;2066479;28;20624;-63
2024/03/19 10:22:19;;;;;;;7.93;1.90;;;;;;;14.57;71.33;96864.16;2067127;28;20209;-59
2024/03/19 10:23:19;;;;;;;5.70;1.55;;;;;;;14.67;72.21;96860.94;2068208;28;20209;-59
2024/03/19 10:24:20;;;;;;;7.67;1.67;;;;;;;14.69;70.59;96858.25;2068741;28;20779;-59
2024/03/19 10:25:21;;;;;;;3.40;1.50;;;;;;;14.78;69.88;96860.34;2066449;28;20443;-59
2024/03/19 10:26:21;;;;;;;5.33;1.80;;;;;;;14.17;70.63;96856.75;2066179;28;20206;-59
2024/03/19 10:27:23;;;;;;;3.20;1.47;;;;;;;13.55;72.79;96860.09;2070590;28;20316;-59
2024/03/19 10:28:24;;;;;;;7.88;1.50;;;;;;;13.69;72.99;96857.56;2072317;28;20210;-59
2024/03/19 10:29:24;;;;;;;4.80;1.77;;;;;;;13.75;73.44;96852.94;2065426;28;20914;-60
2024/03/19 10:30:25;;;;;;;6.03;1.77;;;;;;;14.77;71.75;96856.00;2066985;28;20217;-59
2024/03/19 10:31:25;;;;;;;2.90;1.40;;;;;;;14.25;71.43;96854.53;2068552;28;20225;-59
2024/03/19 10:32:27;;;;;;;2.97;1.23;;;;;;;13.91;72.02;96859.03;2067377;28;20217;-59
2024/03/19 10:33:29;;;;;;;9.13;1.80;;;;;;;13.49;72.48;96844.69;2066072;28;20206;-60
2024/03/19 10:34:33;;;;;;;6.15;1.60;;;;;;;13.39;74.01;96853.06;2064224;28;20225;-59
2024/03/19 10:35:33;;;;;;;5.15;1.45;;;;;;;13.02;75.11;96860.16;2073439;28;20236;-59
2024/03/19 10:36:37;;;;;;;5.33;1.60;;;;;;;13.38;75.36;96855.72;2066223;28;20211;-59
2024/03/19 10:37:38;;;;;;;2.97;1.27;;;;;;;14.33;71.89;96849.69;2070788;28;20255;-59
2024/03/19 10:38:39;;;;;;;7.40;1.60;;;;;;;15.88;68.71;96848.50;2070791;28;20213;-59
2024/03/19 10:39:43;;;;;;;16.13;1.70;;;;;;;16.87;65.58;96849.19;2065600;28;20459;-59
2024/03/19 10:40:43;;;;;;;2.03;1.20;;;;;;;16.87;65.58;96849.19;2070581;28;20210;-59
2024/03/19 10:41:51;;;;;;;4.50;1.40;;;;;;;-145.49;100.00;55703.94;2069997;28;20770;-59
2024/03/19 10:42:54;;;;;;;12.63;1.45;;;;;;;-145.49;100.00;55703.94;2067072;28;20205;-59
2024/03/19 10:44:00;;;;;;;5.97;1.25;;;;;;;-145.49;100.00;55703.94;2068745;28;20206;-59
2024/03/19 10:45:02;;;;;;;5.78;1.65;;;;;;;-145.49;100.00;55703.94;2078960;28;20216;-60
2024/03/19 10:46:03;;;;;;;5.15;1.27;;;;;;;16.87;65.58;96849.19;2073835;28;20210;-60
2024/03/19 10:47:05;;;;;;;5.25;1.60;;;;;;;18.51;59.21;96851.91;2071224;28;20232;-60
2024/03/19 10:48:09;;;;;;;4.75;1.23;;;;;;;-145.49;100.00;55703.94;2063613;28;20202;-60
2024/03/19 10:49:15;;;;;;;2.78;1.45;;;;;;;-145.49;100.00;55703.94;2072190;28;20206;-59
2024/03/19 10:50:17;;;;;;;1.77;1.00;;;;;;;-145.49;100.00;55703.94;2065345;28;20669;-60
2024/03/19 10:51:18;;;;;;;3.75;1.10;;;;;;;-145.49;100.00;55703.94;2067502;28;20206;-60
2024/03/19 10:52:22;;;;;;;2.93;1.23;;;;;;;-145.49;100.00;55703.94;2067431;28;20221;-60
2024/03/19 10:53:27;;;;;;;4.30;1.35;;;;;;;19.08;55.15;96833.59;2064899;28;20210;-61
2024/03/19 10:54:32;;;;;;;3.15;1.02;;;;;;;19.87;53.33;96844.28;2067083;28;20218;-59
2024/03/19 10:55:35;;;;;;;3.67;1.00;;;;;;;20.56;53.53;96845.81;2069935;28;20228;-59
2024/03/19 10:56:36;;;;;;;4.35;1.17;;;;;;;20.10;53.15;96838.97;2070285;28;20248;-60
2024/03/19 10:57:39;;;;;;;3.83;1.10;;;;;;;20.35;53.13;96847.56;2074861;28;20209;-59
2024/03/19 10:58:40;;;;;;;2.85;1.00;;;;;;;19.34;52.30;96851.94;2062467;28;20210;-59
2024/03/19 10:59:42;;;;;;;4.50;1.10;;;;;;;19.94;52.54;96849.94;2053670;28;20250;-59
2024/03/19 11:00:43;;;;;;;2.90;0.90;;;;;;;19.45;52.37;96840.50;2062966;28;20593;-59
2024/03/19 11:01:51;;;;;;;2.80;1.20;;;;;;;19.57;52.88;96839.56;2075163;28;20244;-59
2024/03/19 11:02:59;;;;;;;5.80;1.50;;;;;;;19.50;52.82;96844.50;2073895;28;20292;-59
2024/03/19 11:04:02;;;;;;;4.45;1.35;;;;;;;19.81;54.94;96847.38;2067615;28;20708;-60
2024/03/19 11:05:03;;;;;;;3.00;1.25;;;;;;;18.95;53.86;96846.91;2068011;28;20575;-59
2024/03/19 11:06:15;;;;;;;3.00;1.65;;;;;;;18.10;55.90;96848.66;2066199;28;20229;-59
2024/03/19 11:07:23;;;;;;;5.68;1.20;;;;;;;19.06;55.67;96844.31;2067039;28;20218;-59
2024/03/19 11:08:25;;;;;;;3.70;1.40;;;;;;;19.71;53.71;96849.09;2071548;28;20205;-59
2024/03/19 11:09:28;;;;;;;5.53;1.35;;;;;;;20.94;52.79;96842.78;2064571;28;20236;-59
2024/03/19 11:10:31;;;;;;;3.30;1.23;;;;;;;20.18;54.36;96823.28;2068215;28;20673;-59
2024/03/19 11:11:36;;;;;;;3.35;1.33;;;;;;;20.80;55.31;96851.94;2068374;28;20299;-63
2024/03/19 11:12:36;;;;;;;9.30;1.40;;;;;;;19.16;58.18;96838.31;2069574;28;20215;-63
2024/03/19 11:13:37;;;;;;;7.03;1.67;;;;;;;19.23;59.93;96848.28;2061229;28;20330;-63
2024/03/19 11:14:38;;;;;;;2.40;1.47;;;;;;;19.93;60.06;96848.25;2065645;28;20217;-63
2024/03/19 11:15:45;;;;;;;3.83;1.23;;;;;;;19.97;59.25;96843.53;2065881;28;20213;-63
2024/03/19 11:16:47;;;;;;;4.47;1.30;;;;;;;20.32;58.66;96843.38;2067462;28;20206;-64
2024/03/19 11:17:47;;;;;;;2.60;1.20;;;;;;;19.64;59.55;96848.72;2066663;28;20206;-64
2024/03/19 11:18:51;;;;;;;2.33;1.30;;;;;;;19.93;59.31;96842.94;2059024;28;20207;-64
2024/03/19 11:19:55;;;;;;;4.82;1.20;;;;;;;20.54;59.16;96852.22;2050669;28;20254;-63
2024/03/19 11:20:56;;;;;;;3.72;1.30;;;;;;;20.75;58.52;96844.34;2059828;28;20218;-64
2024/03/19 11:21:58;;;;;;;2.90;1.33;;;;;;;19.33;57.59;96847.63;2059871;28;20213;-64
2024/03/19 11:23:02;;;;;;;3.25;1.30;;;;;;;20.57;56.29;96846.69;2067439;28;20751;-64
2024/03/19 11:24:03;;;;;;;2.42;1.20;;;;;;;20.34;56.02;96845.88;2057560;28;20207;-64
2024/03/19 11:25:06;;;;;;;2.60;1.17;;;;;;;20.39;55.42;96833.09;2059693;28;20241;-63
2024/03/19 11:26:08;;;;;;;2.40;1.50;;;;;;;20.91;55.14;96843.06;2060346;28;20217;-64
2024/03/19 11:27:16;;;;;;;3.10;1.50;;;;;;;21.94;53.73;96839.59;2052262;28;20214;-64
2024/03/19 11:28:20;;;;;;;7.45;1.40;;;;;;;21.66;55.33;96836.69;2058890;28;20211;-64
2024/03/19 11:29:23;;;;;;;3.40;1.60;;;;;;;21.92;55.21;96840.72;2062524;28;20265;-64
2024/03/19 11:30:24;;;;;;;2.95;1.17;;;;;;;21.12;55.84;96840.41;2059991;28;20241;-63
2024/03/19 11:31:38;;;;;;;3.80;1.50;;;;;;;20.54;56.80;96842.47;2058687;28;20217;-64
2024/03/19 11:32:41;;;;;;;3.00;1.25;;;;;;;20.22;56.88;96842.44;2062572;28;20269;-64